OpusPoker: Agen Poker Online, Agen Judi qq, Agen Poker Terpercaya

Jackpot

Texas Poker Multi Jackpot System

Kini Telah hadir Jackpot SUPER ROYAL FLUSH

Kini Telah hadir Jackpot 2000 (khusus table VIP keatas).

Ikutilah global jackpot yang tersedia di system kami, dengan system jackpot terbaru dan pertama di indonesia, anda dapat membeli jackpot dengan harga 100 rupiah saja dan menangkan hadiahnya hingga puluhan juta rupiah.

Jackpot bukanlah suatu keharusan untuk dibeli, namun kami memberikan suatu fitur tambahan untuk member tercinta dari www.opuspoker.com.

Terdapat tiga pilihan harga jackpot yang bisa anda beli yaitu :100,500,1000 dan 2000(khusus table VIP Keatas) rupiah.

Hadiah dari Multi jackpot system www.opuspoker.com

  1. full house x 10 harga jackpot yang anda beli.
      (contoh:anda membeli 1000 maka:1000 X10 = 10.000)
  2. four of kind x 250 harga jackpot yang anda beli
      (contoh:anda membeli 1000 maka:1000 X250 = 250.000)
  3. Straight flush x 1200
      (contoh:anda membeli 1000 maka:1000 X1200 = 1.200.000)
  4. Royal flush x 10000 harga jackpot yang anda beli
      (contoh:anda membeli 1000 maka:1000 X10000 = 10.000.000)
  5. SUPER ROYAL FLUSH x 30000 harga jackpot yang anda beli
      (contoh:anda membeli 1000 maka:1000 X30000 = 30.000.000)

Kondisi kartu

  1. full house adalah kondisi kartu dimana kartu anda dan kartu tengah dengan total 7 kartu bisa mendapatkan nilai 5 kartu dengan kombinasi 1 tris(three of kind) dan 1 pair, contoh 3 kartu 10 dan 2 kartu 5
  2. Four of kind adalah kondisi kartu dimana kartu anda dan kartu tengah dengan total 7 kartu bisa mendapatkan nilai 5 kartu dengan kombinasi 4 kartu yang sama jumlah dan 1 kartu apapun juga contoh anda mendapatkan 4 buah kartu angka 3 dan 1 kartu apapun.
  3. Staright flush adalah kondisi kartu dimana kartu anda dan kartu tengah dengan total 7 kartu bisa mendapatkan nilai 5 kartu dengan kombinasi seri / staright dengan kembang yang sama contoh : urutan kartu dari angka 5, 6, 7, 8 , 9 10 dengan kembang yg sama misalnya as hati
  4. Royal flush adalah kondisi kartu dimana kartu anda dan kartu tengah dengan total 7 kartu bisa mendapatkan nilai 5 kartu dengan kombinasi seri / staright dengan kembang yang sama tetapi kartu tersebut haruslah dimulai dari 10. contoh 10, Queen, Jack, King dan aces dengan kembang yang sama
  5. Super Royal flush adalah kondisi kartu dimana Kedua kartu anda digabung dengan 3 kartu pertama meja haruslah royal flush. contoh kartu anda 10,Queen kembang sama dan 3 kartu pertama meja adalah Jack, King dan aces dengan kembang yang sama

Demikian adalah penjelasan dari Multi Jackpot www.opuspoker.com terima kasih dan selamat bermain salam hoki dari kami

Texas Poker Jackpot Winner

TOP SUPER ROYAL FLUSH
No.TanggalNamaPriceWin
120/08 00:20MAMAHEMASuper Royal flush6,000,000
219/08 20:17CA66Super Royal flush15,000,000
319/08 19:34DJOULYSuper Royal flush6,000,000
419/08 15:26AL_ZABAR99Super Royal flush3,000,000
519/08 06:19ARJUNA8888Super Royal flush30,000,000
TOP ROYAL FLUSH
No.TanggalNamaPriceWin
120/08 05:33GIV3M3JPRoyal flush1,000,000
220/08 05:15SHIPA007Royal flush5,000,000
320/08 04:27OM7OKGRVZWRoyal flush1,000,000
420/08 04:01UCOX46Royal flush10,000,000
520/08 03:58SEMBER86Royal flush2,000,000
TOP STRAIGHT FLUSH
No.TanggalNamaPriceWin
120/08 05:27LOOKOTStraight Flush1,200,000
220/08 05:27CANCEL_1Straight Flush240,000
320/08 05:23ROTY02Straight Flush1,200,000
420/08 05:17E35712D2Straight Flush600,000
520/08 05:16POWER1234Straight Flush600,000
LATEST JACKPOT
No.TanggalNamaPriceWin
120/08 05:37CADAS13Full House1,000
220/08 05:37LU_WAK77Full House10,000
320/08 05:37SOLUSI400Full House1,000
420/08 05:36GETUK98Full House1,000
520/08 05:36CHUPPY17Full House5,000
620/08 05:36KICKSONFull House20,000
720/08 05:36BORA_BORAFull House10,000
820/08 05:36ZEBOTZ87Full House2,000
920/08 05:36TEMPEX99Full House5,000
1020/08 05:36PLAKSUT3Full House20,000
1120/08 05:36ASALQQFull House20,000
1220/08 05:36DOWBOW88Full House1,000
1320/08 05:36GO96Full House5,000
1420/08 05:36MOON_JP88Full House2,000
1520/08 05:36GE_TOK17Four Of A Kind50,000
1620/08 05:36THEFLOWERSFull House2,000
1720/08 05:36B54H4L19Full House10,000
1820/08 05:36CHUPPY17Full House5,000
1920/08 05:36CABI94Full House2,000
2020/08 05:36BERGE_1986Full House5,000
2120/08 05:36C39EB8EEFull House1,000
2220/08 05:36CEMIKSFull House1,000
2320/08 05:36ATIQUSS28Full House20,000
2420/08 05:36E5WYK4PWBVFull House2,000
2520/08 05:36MINJAM33Full House2,000
2620/08 05:36RAJACYBER1Full House10,000
2720/08 05:36JULIARDI07Full House1,000
2820/08 05:36TH0MASFull House5,000
2920/08 05:36WAKLE77Full House1,000
3020/08 05:36PSULIW4Full House20,000
3120/08 05:36GUPPIESFull House5,000
3220/08 05:36ALTHAFFATHFull House1,000
3320/08 05:36JONKEY800Full House1,000
3420/08 05:36MRSJACK77Full House10,000
3520/08 05:36ALPHA0409Full House10,000
3620/08 05:35E8245E7FFull House2,000
3720/08 05:35ANDRIF2787Full House10,000
3820/08 05:35W3789Full House20,000
3920/08 05:35B9071B0EFull House1,000
4020/08 05:35SU3RRFull House5,000
4120/08 05:35ENGENG09Full House1,000
4220/08 05:35SNYSTER2Full House5,000
4320/08 05:35NAPOLI05Full House2,000
4420/08 05:35V1V1T0T3Full House5,000
4520/08 05:35ANTENAKUFull House10,000
4620/08 05:35LUCKYDEWA7Full House20,000
4720/08 05:35MAULANAJTFull House2,000
4820/08 05:35KOKOOKFull House2,000
4920/08 05:35ALOY096Full House2,000
5020/08 05:35RAKINEMFull House5,000

Domino Multi Jackpot System

Ikutilah global jackpot yang tersedia di system kami, dengan system jackpot terbaru dan pertama di indonesia, anda dapat membeli jackpot dengan harga 100 rupiah saja dan menangkan hadiahnya hingga puluhan juta rupiah.

Jackpot bukanlah suatu keharusan untuk dibeli, namun kami memberikan suatu fitur tambahan untuk member tercinta dari www.opuspoker.com.

Terdapat tiga pilihan harga jackpot yang bisa anda beli yaitu :100,500 dan 1000 rupiah.

Hadiah dari Multi jackpot system www.opuspoker.com

  1. Murni Kecil x 50 harga jackpot yang anda beli.
      (contoh:anda membeli 1000 maka:1000 X 50 = 50.000)
  2. Murni Besar x 50 harga jackpot yang anda beli
      (contoh:anda membeli 1000 maka:1000 X 50 = 50.000)
  3. BALAK x 100 harga jackpot yang anda beli
      (contoh:anda membeli 1000 maka:1000 X 100 = 100.000)
  4. ENAM DEWA x 6666 harga jackpot yang anda beli
      (contoh:anda membeli 1000 maka:1000 X 6666 = 6.666.000)

Demikian adalah penjelasan dari Multi Jackpot www.opuspoker.com terima kasih dan selamat bermain salam hoki dari kami

Domino Jackpot Winner

TOP ENAM DEWA
No.TanggalNamaPriceWin
120/08 03:42FELERGEDEmurni enam666,600
220/08 03:35ROHMIN12murni enam666,600
320/08 02:06DRIVER19murni enam3,333,000
420/08 00:05ROOTS007murni enam6,666,000
519/08 23:47JACE888murni enam6,666,000
TOP BALAK
No.TanggalNamaPriceWin
120/08 05:32FIREWINGSbalak100,000
220/08 05:21NIDALbalak100,000
320/08 05:20TORES07balak10,000
420/08 05:17ADS2503balak100,000
520/08 05:15J3RIB3Tbalak100,000
LATEST JACKPOT
No.TanggalNamaPriceWin
120/08 05:34777ETHOXmurni besar25,000
220/08 05:33B4L4KUSUM4murni besar25,000
320/08 05:33HUNGKUL84murni besar5,000
420/08 05:32FIREWINGSbalak100,000
520/08 05:31POPON79murni kecil50,000
620/08 05:30DN4DJAMIL122murni besar25,000
720/08 05:28DONO345murni kecil25,000
820/08 05:27ANTOBGENmurni besar50,000
920/08 05:27T4DALDI75murni besar50,000
1020/08 05:26HSKSKDKKBmurni kecil25,000
1120/08 05:26ZULING76murni besar25,000
1220/08 05:25ABULAIL12murni besar50,000
1320/08 05:25DAYEK93murni besar25,000
1420/08 05:24NIDALmurni besar50,000
1520/08 05:23RHARA9murni kecil50,000
1620/08 05:22JVPIG2GJO4murni besar25,000
1720/08 05:21NIDALbalak100,000
1820/08 05:21FG4FLV9LHPmurni kecil25,000
1920/08 05:20TORES07balak10,000
2020/08 05:20HUNGKUL84murni besar50,000
2120/08 05:20RAZAKRIFAImurni besar5,000
2220/08 05:19YENTI21murni kecil25,000
2320/08 05:18BOYKI90murni kecil25,000
2420/08 05:17ADS2503balak100,000
2520/08 05:17JVPIG2GJO4murni besar25,000
2620/08 05:17J3RIB3Tmurni besar50,000
2720/08 05:17DONANURmurni kecil50,000
2820/08 05:15J3RIB3Tbalak100,000
2920/08 05:14KULU10murni besar25,000
3020/08 05:14OPA_KELESmurni besar50,000
3120/08 05:12BASENG321murni besar50,000
3220/08 05:12DWBTOLA165balak10,000
3320/08 05:11ATAR29murni kecil50,000
3420/08 05:10OPA_KELESmurni besar50,000
3520/08 05:08CAPIE89balak100,000
3620/08 05:08SAMSUL10murni besar25,000
3720/08 05:07GOKIL06murni besar5,000
3820/08 05:07EE58B58Emurni kecil50,000
3920/08 05:07ROYALF79murni kecil25,000
4020/08 05:07DAMES97murni besar25,000
4120/08 05:06DL4OVUWP69murni besar50,000
4220/08 05:06HUNGKUL84murni besar25,000
4320/08 05:06FELANIAbalak100,000
4420/08 05:05DAMES97murni besar25,000
4520/08 05:04SRZ189murni besar50,000
4620/08 05:04BOYKI90balak50,000
4720/08 05:03ANTOBGENbalak100,000
4820/08 05:03LMPOPmurni besar50,000
4920/08 05:03A9USS99balak100,000
5020/08 05:02PIAN86X9murni besar50,000

Ceme Multi Jackpot System

Jackpot dilihat dari gabungan kartu pemain dengan kartu bandar. Bandar harus membeli jackpot sebanyak jumlah player yang sedang duduk. Sebagai contoh bila terdapat 3 pemain duduk bermain, dan bandar memutuskan untuk membeli jackpot Rp 1.000, maka pada periode tersebut bandar akan membeli jackpot sebanyak 3xRp1.000 = Rp3.000.

Jackpot bukanlah suatu keharusan untuk dibeli, namun kami memberikan suatu fitur tambahan untuk member tercinta dari www.opuspoker.com.

Terdapat tiga pilihan harga jackpot yang bisa anda beli yaitu :100,500 dan 1000 rupiah.

Hadiah dari Multi jackpot system www.opuspoker.com

  1. Murni Kecil x 50 harga jackpot yang anda beli.
      (contoh:anda membeli 1000 maka:1000 X 50 = 50.000)
  2. Murni Besar x 50 harga jackpot yang anda beli
      (contoh:anda membeli 1000 maka:1000 X 50 = 50.000)
  3. BALAK x 200 harga jackpot yang anda beli
      (contoh:anda membeli 1000 maka:1000 X 200 = 200.000)
  4. ENAM DEWA x 6666 harga jackpot yang anda beli
      (contoh:anda membeli 1000 maka:1000 X 6666 = 6.666.000)

Demikian adalah penjelasan dari Multi Jackpot www.opuspoker.com terima kasih dan selamat bermain salam hoki dari kami

Ceme Jackpot Winner

TOP ENAM DEWA
No.TanggalNamaPriceWin
120/08 05:33GINTINGTINmurni enam6,666,000
220/08 05:30WALLATmurni enam6,666,000
320/08 05:08ANGELBGTmurni enam666,600
420/08 03:48FERDROTmurni enam666,600
520/08 03:31UMAR1010murni enam666,600
TOP BALAK
No.TanggalNamaPriceWin
120/08 05:36TELESINDObalak200,000
220/08 05:36EAGLE27balak100,000
320/08 05:36MUL96balak20,000
420/08 05:35LUM1NTU21balak200,000
520/08 05:35LEKINGbalak200,000
LATEST JACKPOT
No.TanggalNamaPriceWin
120/08 05:36TELESINDObalak200,000
220/08 05:36FAUZIA8888murni kecil25,000
320/08 05:36TONGTUT2murni kecil50,000
420/08 05:361ND4Rmurni kecil50,000
520/08 05:36D0NRENDYmurni kecil5,000
620/08 05:36EAGLE27balak100,000
720/08 05:36MUL96balak20,000
820/08 05:35LUM1NTU21balak200,000
920/08 05:35LEKINGbalak200,000
1020/08 05:35JP__10JTmurni besar50,000
1120/08 05:35PAMPERS77murni kecil5,000
1220/08 05:35DWBTGORA36murni kecil50,000
1320/08 05:35C6809643balak100,000
1420/08 05:35PAMPERS77balak20,000
1520/08 05:34SINGGIEmurni kecil50,000
1620/08 05:34J4Xmurni besar50,000
1720/08 05:34ENP2212murni besar25,000
1820/08 05:33MOMOY01balak20,000
1920/08 05:33J4Xmurni kecil50,000
2020/08 05:33GINTINGTINmurni enam6,666,000
2120/08 05:33CAHAYA8282murni kecil50,000
2220/08 05:32HDF14murni kecil5,000
2320/08 05:32DXTQH51L08murni kecil25,000
2420/08 05:32SUGESDEKmurni kecil50,000
2520/08 05:32HENDRA291balak100,000
2620/08 05:32GHANIS123balak200,000
2720/08 05:31JOKE_RRmurni besar50,000
2820/08 05:31ANJINK9090murni kecil5,000
2920/08 05:30RANDHY96murni besar50,000
3020/08 05:30WECING94balak200,000
3120/08 05:30WALLATmurni enam6,666,000
3220/08 05:30HUSEN533murni kecil50,000
3320/08 05:30LUM1NTU21murni kecil50,000
3420/08 05:30LUM1NTU21murni kecil50,000
3520/08 05:30LEKINGmurni kecil50,000
3620/08 05:30JENAR789balak200,000
3720/08 05:30IMSORRYAbalak200,000
3820/08 05:29NIKI2206balak200,000
3920/08 05:29ONDOL81murni kecil50,000
4020/08 05:29VR46HOKIbalak200,000
4120/08 05:29PIKACU1993balak20,000
4220/08 05:29MLEHOYY77murni besar50,000
4320/08 05:29LUM1NTU21murni kecil50,000
4420/08 05:29ONDOL81murni kecil50,000
4520/08 05:29VR46HOKImurni besar50,000
4620/08 05:29RIANALmurni kecil50,000
4720/08 05:28AF60FD2Cbalak100,000
4820/08 05:28ATUK8787murni besar5,000
4920/08 05:28GINTINGTINmurni kecil50,000
5020/08 05:28BOCYL08murni besar50,000